sensor_id;sensor_type;location;lat;lon;timestamp;temperature;humidity
12926;DHT22;6529;50.566;9.774;2023-02-13T00:02:07;5.10;99.90
12926;DHT22;6529;50.566;9.774;2023-02-13T00:04:33;5.10;99.90
12926;DHT22;6529;50.566;9.774;2023-02-13T00:06:59;5.10;99.90
12926;DHT22;6529;50.566;9.774;2023-02-13T00:09:25;5.10;99.90
12926;DHT22;6529;50.566;9.774;2023-02-13T00:11:50;5.10;99.90
12926;DHT22;6529;50.566;9.774;2023-02-13T00:14:16;5.10;99.90
12926;DHT22;6529;50.566;9.774;2023-02-13T00:16:42;5.10;99.90
12926;DHT22;6529;50.566;9.774;2023-02-13T00:19:07;5.10;99.90
12926;DHT22;6529;50.566;9.774;2023-02-13T00:21:33;5.10;99.90
12926;DHT22;6529;50.566;9.774;2023-02-13T00:23:58;5.10;99.90
12926;DHT22;6529;50.566;9.774;2023-02-13T00:26:24;5.10;99.90
12926;DHT22;6529;50.566;9.774;2023-02-13T00:28:49;5.10;99.90
12926;DHT22;6529;50.566;9.774;2023-02-13T00:31:17;5.10;99.90
12926;DHT22;6529;50.566;9.774;2023-02-13T00:33:44;5.10;99.90
12926;DHT22;6529;50.566;9.774;2023-02-13T00:36:18;5.10;99.90
12926;DHT22;6529;50.566;9.774;2023-02-13T00:38:44;5.10;99.90
12926;DHT22;6529;50.566;9.774;2023-02-13T00:41:10;5.10;99.90
12926;DHT22;6529;50.566;9.774;2023-02-13T00:43:36;5.10;99.90
12926;DHT22;6529;50.566;9.774;2023-02-13T00:46:02;5.10;99.90
12926;DHT22;6529;50.566;9.774;2023-02-13T00:48:30;5.10;99.90
12926;DHT22;6529;50.566;9.774;2023-02-13T00:50:56;5.10;99.90
12926;DHT22;6529;50.566;9.774;2023-02-13T00:53:23;5.20;99.90
12926;DHT22;6529;50.566;9.774;2023-02-13T00:55:50;5.20;99.90
12926;DHT22;6529;50.566;9.774;2023-02-13T00:58:17;5.20;99.90
12926;DHT22;6529;50.566;9.774;2023-02-13T01:00:43;5.10;99.90
12926;DHT22;6529;50.566;9.774;2023-02-13T01:03:08;5.10;99.90
12926;DHT22;6529;50.566;9.774;2023-02-13T01:05:34;5.10;99.90
12926;DHT22;6529;50.566;9.774;2023-02-13T01:08:00;5.10;99.90
12926;DHT22;6529;50.566;9.774;2023-02-13T01:10:26;5.00;99.90
12926;DHT22;6529;50.566;9.774;2023-02-13T01:12:52;5.00;99.90
12926;DHT22;6529;50.566;9.774;2023-02-13T01:15:17;5.00;99.90
12926;DHT22;6529;50.566;9.774;2023-02-13T01:17:43;5.00;99.90
12926;DHT22;6529;50.566;9.774;2023-02-13T01:20:10;5.00;99.90
12926;DHT22;6529;50.566;9.774;2023-02-13T01:22:37;5.00;99.90
12926;DHT22;6529;50.566;9.774;2023-02-13T01:25:03;5.00;99.90
12926;DHT22;6529;50.566;9.774;2023-02-13T01:27:29;4.90;99.90
12926;DHT22;6529;50.566;9.774;2023-02-13T01:29:55;4.90;99.90
12926;DHT22;6529;50.566;9.774;2023-02-13T01:32:21;4.90;99.90
12926;DHT22;6529;50.566;9.774;2023-02-13T01:34:47;4.90;99.90
12926;DHT22;6529;50.566;9.774;2023-02-13T01:37:13;4.90;99.90
12926;DHT22;6529;50.566;9.774;2023-02-13T01:39:39;4.90;99.90
12926;DHT22;6529;50.566;9.774;2023-02-13T01:42:05;4.90;99.90
12926;DHT22;6529;50.566;9.774;2023-02-13T01:47:19;4.90;99.90
12926;DHT22;6529;50.566;9.774;2023-02-13T01:49:46;4.90;99.90
12926;DHT22;6529;50.566;9.774;2023-02-13T01:52:13;4.90;99.90
12926;DHT22;6529;50.566;9.774;2023-02-13T01:54:40;4.90;99.90
12926;DHT22;6529;50.566;9.774;2023-02-13T01:57:14;4.90;99.90
12926;DHT22;6529;50.566;9.774;2023-02-13T01:59:58;4.90;99.90
12926;DHT22;6529;50.566;9.774;2023-02-13T02:02:25;4.90;99.90
12926;DHT22;6529;50.566;9.774;2023-02-13T02:04:51;4.90;99.90
12926;DHT22;6529;50.566;9.774;2023-02-13T02:07:24;4.80;99.90
12926;DHT22;6529;50.566;9.774;2023-02-13T02:09:53;4.80;99.90
12926;DHT22;6529;50.566;9.774;2023-02-13T02:12:33;4.80;99.90
12926;DHT22;6529;50.566;9.774;2023-02-13T02:15:01;4.80;99.90
12926;DHT22;6529;50.566;9.774;2023-02-13T02:17:27;4.80;99.90
12926;DHT22;6529;50.566;9.774;2023-02-13T02:20:08;4.90;99.90
12926;DHT22;6529;50.566;9.774;2023-02-13T02:36:14;4.90;99.90
12926;DHT22;6529;50.566;9.774;2023-02-13T02:38:56;4.90;99.90
12926;DHT22;6529;50.566;9.774;2023-02-13T02:41:30;4.90;99.90
12926;DHT22;6529;50.566;9.774;2023-02-13T02:50:20;4.80;99.90
12926;DHT22;6529;50.566;9.774;2023-02-13T03:01:10;4.90;99.90
12926;DHT22;6529;50.566;9.774;2023-02-13T03:03:56;4.80;99.90
12926;DHT22;6529;50.566;9.774;2023-02-13T03:06:58;4.80;99.90
12926;DHT22;6529;50.566;9.774;2023-02-13T03:09:29;4.80;99.90
12926;DHT22;6529;50.566;9.774;2023-02-13T03:12:18;4.70;99.90
12926;DHT22;6529;50.566;9.774;2023-02-13T03:15:04;4.80;99.90
12926;DHT22;6529;50.566;9.774;2023-02-13T03:17:30;4.80;99.90
12926;DHT22;6529;50.566;9.774;2023-02-13T03:20:22;4.80;99.90
12926;DHT22;6529;50.566;9.774;2023-02-13T03:23:19;4.90;99.90
12926;DHT22;6529;50.566;9.774;2023-02-13T03:31:50;4.80;99.90
12926;DHT22;6529;50.566;9.774;2023-02-13T03:34:23;4.80;99.90
12926;DHT22;6529;50.566;9.774;2023-02-13T03:36:58;4.70;99.90
12926;DHT22;6529;50.566;9.774;2023-02-13T03:42:40;4.70;99.90
12926;DHT22;6529;50.566;9.774;2023-02-13T03:45:12;4.70;99.90
12926;DHT22;6529;50.566;9.774;2023-02-13T03:48:00;4.70;99.90
12926;DHT22;6529;50.566;9.774;2023-02-13T03:50:37;4.70;99.90
12926;DHT22;6529;50.566;9.774;2023-02-13T03:53:08;4.70;99.90
12926;DHT22;6529;50.566;9.774;2023-02-13T03:55:39;4.60;99.90
12926;DHT22;6529;50.566;9.774;2023-02-13T03:58:40;4.70;99.90
12926;DHT22;6529;50.566;9.774;2023-02-13T04:01:27;4.70;99.90
12926;DHT22;6529;50.566;9.774;2023-02-13T04:04:21;4.60;99.90
12926;DHT22;6529;50.566;9.774;2023-02-13T04:07:05;4.60;99.90
12926;DHT22;6529;50.566;9.774;2023-02-13T04:09:34;4.60;99.90
12926;DHT22;6529;50.566;9.774;2023-02-13T04:14:57;4.70;99.90
12926;DHT22;6529;50.566;9.774;2023-02-13T04:17:31;4.60;99.90
12926;DHT22;6529;50.566;9.774;2023-02-13T04:19:58;4.60;99.90
12926;DHT22;6529;50.566;9.774;2023-02-13T04:22:24;4.60;99.90
12926;DHT22;6529;50.566;9.774;2023-02-13T04:24:49;4.50;99.90
12926;DHT22;6529;50.566;9.774;2023-02-13T04:27:16;4.50;99.90
12926;DHT22;6529;50.566;9.774;2023-02-13T04:29:43;4.50;99.90
12926;DHT22;6529;50.566;9.774;2023-02-13T04:32:09;4.50;99.90
12926;DHT22;6529;50.566;9.774;2023-02-13T04:34:35;4.50;99.90
12926;DHT22;6529;50.566;9.774;2023-02-13T04:37:01;4.50;99.90
12926;DHT22;6529;50.566;9.774;2023-02-13T04:39:27;4.40;99.90
12926;DHT22;6529;50.566;9.774;2023-02-13T04:41:52;4.40;99.90
12926;DHT22;6529;50.566;9.774;2023-02-13T04:44:18;4.40;99.90
12926;DHT22;6529;50.566;9.774;2023-02-13T04:46:43;4.40;99.90
12926;DHT22;6529;50.566;9.774;2023-02-13T04:49:09;4.40;99.90
12926;DHT22;6529;50.566;9.774;2023-02-13T04:51:35;4.30;99.90
12926;DHT22;6529;50.566;9.774;2023-02-13T04:54:01;4.30;99.90
12926;DHT22;6529;50.566;9.774;2023-02-13T04:56:26;4.40;99.90
12926;DHT22;6529;50.566;9.774;2023-02-13T04:58:53;4.30;99.90
12926;DHT22;6529;50.566;9.774;2023-02-13T05:01:19;4.20;99.90
12926;DHT22;6529;50.566;9.774;2023-02-13T05:03:44;4.20;99.90
12926;DHT22;6529;50.566;9.774;2023-02-13T05:06:10;4.20;99.90
12926;DHT22;6529;50.566;9.774;2023-02-13T05:08:36;4.10;99.90
12926;DHT22;6529;50.566;9.774;2023-02-13T05:11:01;4.10;99.90
12926;DHT22;6529;50.566;9.774;2023-02-13T05:13:27;4.10;99.90
12926;DHT22;6529;50.566;9.774;2023-02-13T05:15:53;4.00;99.90
12926;DHT22;6529;50.566;9.774;2023-02-13T05:18:19;3.90;99.90
12926;DHT22;6529;50.566;9.774;2023-02-13T05:20:44;3.90;99.90
12926;DHT22;6529;50.566;9.774;2023-02-13T05:23:30;3.90;99.90
12926;DHT22;6529;50.566;9.774;2023-02-13T05:25:55;3.80;99.90
12926;DHT22;6529;50.566;9.774;2023-02-13T05:28:21;3.80;99.90
12926;DHT22;6529;50.566;9.774;2023-02-13T05:31:05;3.70;99.90
12926;DHT22;6529;50.566;9.774;2023-02-13T05:33:30;3.60;99.90
12926;DHT22;6529;50.566;9.774;2023-02-13T05:35:56;3.40;99.90
12926;DHT22;6529;50.566;9.774;2023-02-13T05:38:21;3.40;99.90
12926;DHT22;6529;50.566;9.774;2023-02-13T05:40:47;3.20;99.90
12926;DHT22;6529;50.566;9.774;2023-02-13T05:43:12;3.20;99.90
12926;DHT22;6529;50.566;9.774;2023-02-13T05:45:38;3.20;99.90
12926;DHT22;6529;50.566;9.774;2023-02-13T05:48:04;3.10;99.90
12926;DHT22;6529;50.566;9.774;2023-02-13T05:50:29;3.00;99.90
12926;DHT22;6529;50.566;9.774;2023-02-13T05:52:55;3.00;99.90
12926;DHT22;6529;50.566;9.774;2023-02-13T05:55:20;3.00;99.90
12926;DHT22;6529;50.566;9.774;2023-02-13T05:57:46;3.00;99.90
12926;DHT22;6529;50.566;9.774;2023-02-13T06:00:12;2.90;99.90
12926;DHT22;6529;50.566;9.774;2023-02-13T06:02:38;2.90;99.90
12926;DHT22;6529;50.566;9.774;2023-02-13T06:05:03;2.90;99.90
12926;DHT22;6529;50.566;9.774;2023-02-13T06:07:29;2.80;99.90
12926;DHT22;6529;50.566;9.774;2023-02-13T06:09:54;2.70;99.90
12926;DHT22;6529;50.566;9.774;2023-02-13T06:12:22;2.70;99.90
12926;DHT22;6529;50.566;9.774;2023-02-13T06:14:48;2.60;99.90
12926;DHT22;6529;50.566;9.774;2023-02-13T06:17:13;2.50;99.90
12926;DHT22;6529;50.566;9.774;2023-02-13T06:19:39;2.50;99.90
12926;DHT22;6529;50.566;9.774;2023-02-13T06:22:04;2.60;99.90
12926;DHT22;6529;50.566;9.774;2023-02-13T06:24:30;2.50;99.90
12926;DHT22;6529;50.566;9.774;2023-02-13T06:26:55;3.00;99.90
12926;DHT22;6529;50.566;9.774;2023-02-13T06:29:22;3.30;99.90
12926;DHT22;6529;50.566;9.774;2023-02-13T06:31:47;3.80;99.90
12926;DHT22;6529;50.566;9.774;2023-02-13T06:34:13;4.30;99.90
12926;DHT22;6529;50.566;9.774;2023-02-13T06:36:38;4.70;99.90
12926;DHT22;6529;50.566;9.774;2023-02-13T06:39:06;4.60;99.90
12926;DHT22;6529;50.566;9.774;2023-02-13T06:41:31;4.00;99.90
12926;DHT22;6529;50.566;9.774;2023-02-13T06:43:57;3.50;99.90
12926;DHT22;6529;50.566;9.774;2023-02-13T06:46:22;3.20;99.90
12926;DHT22;6529;50.566;9.774;2023-02-13T06:48:48;2.90;99.90
12926;DHT22;6529;50.566;9.774;2023-02-13T06:51:14;2.70;99.90
12926;DHT22;6529;50.566;9.774;2023-02-13T06:53:39;2.60;99.90
12926;DHT22;6529;50.566;9.774;2023-02-13T06:56:05;2.40;99.90
12926;DHT22;6529;50.566;9.774;2023-02-13T06:58:31;2.40;99.90
12926;DHT22;6529;50.566;9.774;2023-02-13T07:00:58;2.30;99.90
12926;DHT22;6529;50.566;9.774;2023-02-13T07:03:23;2.40;99.90
12926;DHT22;6529;50.566;9.774;2023-02-13T07:05:49;2.30;99.90
12926;DHT22;6529;50.566;9.774;2023-02-13T07:08:17;2.20;99.90
12926;DHT22;6529;50.566;9.774;2023-02-13T07:10:42;2.20;99.90
12926;DHT22;6529;50.566;9.774;2023-02-13T07:13:09;2.30;99.90
12926;DHT22;6529;50.566;9.774;2023-02-13T07:15:36;2.30;99.90
12926;DHT22;6529;50.566;9.774;2023-02-13T07:18:03;2.30;99.90
12926;DHT22;6529;50.566;9.774;2023-02-13T07:20:29;2.20;99.90
12926;DHT22;6529;50.566;9.774;2023-02-13T07:23:03;2.10;99.90
12926;DHT22;6529;50.566;9.774;2023-02-13T07:25:30;2.20;99.90
12926;DHT22;6529;50.566;9.774;2023-02-13T07:28:00;2.10;99.90
12926;DHT22;6529;50.566;9.774;2023-02-13T07:30:26;2.10;99.90
12926;DHT22;6529;50.566;9.774;2023-02-13T07:32:52;2.20;99.90
12926;DHT22;6529;50.566;9.774;2023-02-13T07:35:17;2.20;99.90
12926;DHT22;6529;50.566;9.774;2023-02-13T07:37:43;2.30;99.90
12926;DHT22;6529;50.566;9.774;2023-02-13T07:40:09;2.30;99.90
12926;DHT22;6529;50.566;9.774;2023-02-13T07:42:34;2.30;99.90
12926;DHT22;6529;50.566;9.774;2023-02-13T07:45:00;2.30;99.90
12926;DHT22;6529;50.566;9.774;2023-02-13T07:47:26;2.30;99.90
12926;DHT22;6529;50.566;9.774;2023-02-13T07:49:51;2.20;99.90
12926;DHT22;6529;50.566;9.774;2023-02-13T07:52:19;2.20;99.90
12926;DHT22;6529;50.566;9.774;2023-02-13T07:54:44;2.20;99.90
12926;DHT22;6529;50.566;9.774;2023-02-13T07:57:14;2.20;99.90
12926;DHT22;6529;50.566;9.774;2023-02-13T07:59:39;2.30;99.90
12926;DHT22;6529;50.566;9.774;2023-02-13T08:02:05;2.30;99.90
12926;DHT22;6529;50.566;9.774;2023-02-13T08:04:31;2.30;99.90
12926;DHT22;6529;50.566;9.774;2023-02-13T08:06:56;2.40;99.90
12926;DHT22;6529;50.566;9.774;2023-02-13T08:09:22;2.60;99.90
12926;DHT22;6529;50.566;9.774;2023-02-13T08:12:07;2.80;99.90
12926;DHT22;6529;50.566;9.774;2023-02-13T08:14:33;3.10;99.90
12926;DHT22;6529;50.566;9.774;2023-02-13T08:16:59;3.10;99.90
12926;DHT22;6529;50.566;9.774;2023-02-13T08:19:26;3.10;99.90
12926;DHT22;6529;50.566;9.774;2023-02-13T08:21:51;3.10;99.90
12926;DHT22;6529;50.566;9.774;2023-02-13T08:24:17;3.20;99.90
12926;DHT22;6529;50.566;9.774;2023-02-13T08:26:43;3.20;99.90
12926;DHT22;6529;50.566;9.774;2023-02-13T08:29:08;3.30;99.90
12926;DHT22;6529;50.566;9.774;2023-02-13T08:31:35;3.40;99.90
12926;DHT22;6529;50.566;9.774;2023-02-13T08:34:01;3.40;99.90
12926;DHT22;6529;50.566;9.774;2023-02-13T08:36:27;3.50;99.90
12926;DHT22;6529;50.566;9.774;2023-02-13T08:38:53;3.60;99.90
12926;DHT22;6529;50.566;9.774;2023-02-13T08:41:19;3.70;99.90
12926;DHT22;6529;50.566;9.774;2023-02-13T08:43:48;3.80;99.90
12926;DHT22;6529;50.566;9.774;2023-02-13T08:46:15;3.90;99.90
12926;DHT22;6529;50.566;9.774;2023-02-13T08:48:40;4.00;99.90
12926;DHT22;6529;50.566;9.774;2023-02-13T08:51:08;4.10;99.90
12926;DHT22;6529;50.566;9.774;2023-02-13T08:53:34;4.20;99.90
12926;DHT22;6529;50.566;9.774;2023-02-13T08:56:00;4.40;99.90
12926;DHT22;6529;50.566;9.774;2023-02-13T08:58:26;4.50;99.90
12926;DHT22;6529;50.566;9.774;2023-02-13T09:00:52;4.70;99.90
12926;DHT22;6529;50.566;9.774;2023-02-13T09:03:17;4.90;99.90
12926;DHT22;6529;50.566;9.774;2023-02-13T09:05:44;5.10;99.90
12926;DHT22;6529;50.566;9.774;2023-02-13T09:08:10;5.20;99.90
12926;DHT22;6529;50.566;9.774;2023-02-13T09:10:39;5.30;99.90
12926;DHT22;6529;50.566;9.774;2023-02-13T09:13:05;5.50;99.90
12926;DHT22;6529;50.566;9.774;2023-02-13T09:15:31;5.70;99.90
12926;DHT22;6529;50.566;9.774;2023-02-13T09:17:57;5.90;99.90
12926;DHT22;6529;50.566;9.774;2023-02-13T09:20:23;6.10;99.90
12926;DHT22;6529;50.566;9.774;2023-02-13T09:22:49;6.20;99.90
12926;DHT22;6529;50.566;9.774;2023-02-13T09:25:14;6.40;99.90
12926;DHT22;6529;50.566;9.774;2023-02-13T09:27:40;6.60;99.90
12926;DHT22;6529;50.566;9.774;2023-02-13T09:30:08;6.70;99.90
12926;DHT22;6529;50.566;9.774;2023-02-13T09:32:35;6.80;99.90
12926;DHT22;6529;50.566;9.774;2023-02-13T09:35:02;6.90;99.90
12926;DHT22;6529;50.566;9.774;2023-02-13T09:37:28;7.10;99.90
12926;DHT22;6529;50.566;9.774;2023-02-13T09:39:54;7.00;99.90
12926;DHT22;6529;50.566;9.774;2023-02-13T09:42:23;7.10;99.90
12926;DHT22;6529;50.566;9.774;2023-02-13T09:44:53;7.10;99.90
12926;DHT22;6529;50.566;9.774;2023-02-13T09:52:35;7.50;99.90
12926;DHT22;6529;50.566;9.774;2023-02-13T09:55:02;7.60;99.90
12926;DHT22;6529;50.566;9.774;2023-02-13T09:57:38;7.70;99.90
12926;DHT22;6529;50.566;9.774;2023-02-13T10:00:20;7.70;99.90
12926;DHT22;6529;50.566;9.774;2023-02-13T10:05:46;8.00;99.90
12926;DHT22;6529;50.566;9.774;2023-02-13T10:17:01;8.50;99.90
12926;DHT22;6529;50.566;9.774;2023-02-13T10:19:42;8.70;99.90
12926;DHT22;6529;50.566;9.774;2023-02-13T10:22:14;8.90;99.90
12926;DHT22;6529;50.566;9.774;2023-02-13T10:24:58;9.00;99.90
12926;DHT22;6529;50.566;9.774;2023-02-13T10:27:34;9.10;99.90
12926;DHT22;6529;50.566;9.774;2023-02-13T10:30:19;9.20;99.90
12926;DHT22;6529;50.566;9.774;2023-02-13T10:38:19;9.40;99.90
12926;DHT22;6529;50.566;9.774;2023-02-13T10:46:40;9.80;99.90
12926;DHT22;6529;50.566;9.774;2023-02-13T10:49:17;9.80;99.90
12926;DHT22;6529;50.566;9.774;2023-02-13T11:00:17;10.50;99.90
12926;DHT22;6529;50.566;9.774;2023-02-13T11:02:44;10.70;99.90
12926;DHT22;6529;50.566;9.774;2023-02-13T11:05:19;10.90;99.90
12926;DHT22;6529;50.566;9.774;2023-02-13T11:07:46;11.20;99.90
12926;DHT22;6529;50.566;9.774;2023-02-13T11:10:24;11.30;99.90
12926;DHT22;6529;50.566;9.774;2023-02-13T11:12:50;11.50;99.90
12926;DHT22;6529;50.566;9.774;2023-02-13T11:15:34;11.70;99.90
12926;DHT22;6529;50.566;9.774;2023-02-13T11:18:21;11.40;99.90
12926;DHT22;6529;50.566;9.774;2023-02-13T11:21:10;11.30;99.90
12926;DHT22;6529;50.566;9.774;2023-02-13T11:23:43;11.40;99.90
12926;DHT22;6529;50.566;9.774;2023-02-13T11:26:20;11.50;99.90
12926;DHT22;6529;50.566;9.774;2023-02-13T11:28:54;11.40;99.90
12926;DHT22;6529;50.566;9.774;2023-02-13T11:33:52;11.30;99.90
12926;DHT22;6529;50.566;9.774;2023-02-13T11:36:27;11.30;99.90
12926;DHT22;6529;50.566;9.774;2023-02-13T11:39:02;11.30;99.90
12926;DHT22;6529;50.566;9.774;2023-02-13T11:41:31;11.60;99.90
12926;DHT22;6529;50.566;9.774;2023-02-13T11:44:01;11.70;99.90
12926;DHT22;6529;50.566;9.774;2023-02-13T11:46:42;11.80;99.90
12926;DHT22;6529;50.566;9.774;2023-02-13T11:51:46;12.20;99.90
12926;DHT22;6529;50.566;9.774;2023-02-13T11:56:59;12.30;99.90
12926;DHT22;6529;50.566;9.774;2023-02-13T11:59:28;12.70;99.90
12926;DHT22;6529;50.566;9.774;2023-02-13T12:02:30;12.70;99.90
12926;DHT22;6529;50.566;9.774;2023-02-13T12:05:22;12.80;99.90
12926;DHT22;6529;50.566;9.774;2023-02-13T12:07:48;13.00;99.90
12926;DHT22;6529;50.566;9.774;2023-02-13T12:15:34;12.80;99.90
12926;DHT22;6529;50.566;9.774;2023-02-13T12:26:34;12.90;97.70
12926;DHT22;6529;50.566;9.774;2023-02-13T12:29:07;13.10;99.80
12926;DHT22;6529;50.566;9.774;2023-02-13T12:37:56;13.30;96.70
12926;DHT22;6529;50.566;9.774;2023-02-13T16:35:51;8.80;99.90
12926;DHT22;6529;50.566;9.774;2023-02-13T16:43:50;8.40;99.90
12926;DHT22;6529;50.566;9.774;2023-02-13T16:46:41;8.30;99.90
12926;DHT22;6529;50.566;9.774;2023-02-13T16:56:51;8.00;99.90
12926;DHT22;6529;50.566;9.774;2023-02-13T17:02:32;7.90;99.90
12926;DHT22;6529;50.566;9.774;2023-02-13T17:07:32;7.60;99.90
12926;DHT22;6529;50.566;9.774;2023-02-13T17:10:24;7.60;99.90
12926;DHT22;6529;50.566;9.774;2023-02-13T17:13:00;7.60;99.90
12926;DHT22;6529;50.566;9.774;2023-02-13T17:15:29;7.50;99.90
12926;DHT22;6529;50.566;9.774;2023-02-13T17:17:55;7.40;99.90
12926;DHT22;6529;50.566;9.774;2023-02-13T17:20:26;7.20;99.90
12926;DHT22;6529;50.566;9.774;2023-02-13T17:22:55;7.00;99.90
12926;DHT22;6529;50.566;9.774;2023-02-13T17:27:50;6.80;99.90
12926;DHT22;6529;50.566;9.774;2023-02-13T17:30:19;6.80;99.90
12926;DHT22;6529;50.566;9.774;2023-02-13T17:32:46;6.60;99.90
12926;DHT22;6529;50.566;9.774;2023-02-13T17:35:14;6.60;99.90
12926;DHT22;6529;50.566;9.774;2023-02-13T17:37:41;6.50;99.90
12926;DHT22;6529;50.566;9.774;2023-02-13T17:40:08;6.40;99.90
12926;DHT22;6529;50.566;9.774;2023-02-13T17:42:39;6.50;99.90
12926;DHT22;6529;50.566;9.774;2023-02-13T17:45:05;6.40;99.90
12926;DHT22;6529;50.566;9.774;2023-02-13T17:47:31;6.20;99.90
12926;DHT22;6529;50.566;9.774;2023-02-13T17:49:56;6.20;99.90
12926;DHT22;6529;50.566;9.774;2023-02-13T17:52:25;6.00;99.90
12926;DHT22;6529;50.566;9.774;2023-02-13T17:54:52;5.80;99.90
12926;DHT22;6529;50.566;9.774;2023-02-13T17:57:18;5.70;99.90
12926;DHT22;6529;50.566;9.774;2023-02-13T17:59:44;5.60;99.90
12926;DHT22;6529;50.566;9.774;2023-02-13T18:02:18;5.60;99.90
12926;DHT22;6529;50.566;9.774;2023-02-13T18:04:45;5.50;99.90
12926;DHT22;6529;50.566;9.774;2023-02-13T18:07:12;5.60;99.90
12926;DHT22;6529;50.566;9.774;2023-02-13T18:09:38;5.50;99.90
12926;DHT22;6529;50.566;9.774;2023-02-13T18:12:05;5.40;99.90
12926;DHT22;6529;50.566;9.774;2023-02-13T18:14:32;5.30;99.90
12926;DHT22;6529;50.566;9.774;2023-02-13T18:16:58;5.30;99.90
12926;DHT22;6529;50.566;9.774;2023-02-13T18:19:24;5.20;99.90
12926;DHT22;6529;50.566;9.774;2023-02-13T18:21:50;5.00;99.90
12926;DHT22;6529;50.566;9.774;2023-02-13T18:24:16;4.90;99.90
12926;DHT22;6529;50.566;9.774;2023-02-13T18:26:41;4.80;99.90
12926;DHT22;6529;50.566;9.774;2023-02-13T18:29:07;4.80;99.90
12926;DHT22;6529;50.566;9.774;2023-02-13T18:31:32;4.80;99.90
12926;DHT22;6529;50.566;9.774;2023-02-13T18:33:58;4.80;99.90
12926;DHT22;6529;50.566;9.774;2023-02-13T18:36:24;4.80;99.90
12926;DHT22;6529;50.566;9.774;2023-02-13T18:38:50;4.70;99.90
12926;DHT22;6529;50.566;9.774;2023-02-13T18:41:17;4.70;99.90
12926;DHT22;6529;50.566;9.774;2023-02-13T18:43:43;4.70;99.90
12926;DHT22;6529;50.566;9.774;2023-02-13T18:46:08;4.60;99.90
12926;DHT22;6529;50.566;9.774;2023-02-13T18:48:34;4.50;99.90
12926;DHT22;6529;50.566;9.774;2023-02-13T18:51:00;4.40;99.90
12926;DHT22;6529;50.566;9.774;2023-02-13T18:53:26;4.30;99.90
12926;DHT22;6529;50.566;9.774;2023-02-13T18:56:00;4.30;99.90
12926;DHT22;6529;50.566;9.774;2023-02-13T18:58:25;4.30;99.90
12926;DHT22;6529;50.566;9.774;2023-02-13T19:00:51;4.10;99.90
12926;DHT22;6529;50.566;9.774;2023-02-13T19:03:16;4.10;99.90
12926;DHT22;6529;50.566;9.774;2023-02-13T19:05:42;4.10;99.90
12926;DHT22;6529;50.566;9.774;2023-02-13T19:08:08;4.10;99.90
12926;DHT22;6529;50.566;9.774;2023-02-13T19:10:33;4.10;99.90
12926;DHT22;6529;50.566;9.774;2023-02-13T19:12:59;4.00;99.90
12926;DHT22;6529;50.566;9.774;2023-02-13T19:15:24;3.90;99.90
12926;DHT22;6529;50.566;9.774;2023-02-13T19:17:50;3.80;99.90
12926;DHT22;6529;50.566;9.774;2023-02-13T19:20:16;3.80;99.90
12926;DHT22;6529;50.566;9.774;2023-02-13T19:22:42;3.70;99.90
12926;DHT22;6529;50.566;9.774;2023-02-13T19:25:07;3.70;99.90
12926;DHT22;6529;50.566;9.774;2023-02-13T19:27:35;3.70;99.90
12926;DHT22;6529;50.566;9.774;2023-02-13T19:30:02;3.70;99.90
12926;DHT22;6529;50.566;9.774;2023-02-13T19:32:29;3.70;99.90
12926;DHT22;6529;50.566;9.774;2023-02-13T19:34:55;3.70;99.90
12926;DHT22;6529;50.566;9.774;2023-02-13T19:37:20;3.60;99.90
12926;DHT22;6529;50.566;9.774;2023-02-13T19:39:46;3.70;99.90
12926;DHT22;6529;50.566;9.774;2023-02-13T19:42:11;3.60;99.90
12926;DHT22;6529;50.566;9.774;2023-02-13T19:44:37;3.60;99.90
12926;DHT22;6529;50.566;9.774;2023-02-13T19:47:02;3.50;99.90
12926;DHT22;6529;50.566;9.774;2023-02-13T19:49:28;3.40;99.90
12926;DHT22;6529;50.566;9.774;2023-02-13T19:51:53;3.40;99.90
12926;DHT22;6529;50.566;9.774;2023-02-13T19:54:19;3.30;99.90
12926;DHT22;6529;50.566;9.774;2023-02-13T19:56:44;3.30;99.90
12926;DHT22;6529;50.566;9.774;2023-02-13T19:59:11;3.30;99.90
12926;DHT22;6529;50.566;9.774;2023-02-13T20:01:38;3.20;99.90
12926;DHT22;6529;50.566;9.774;2023-02-13T20:04:07;3.20;99.90
12926;DHT22;6529;50.566;9.774;2023-02-13T20:06:35;3.20;99.90
12926;DHT22;6529;50.566;9.774;2023-02-13T20:09:07;3.10;99.90
12926;DHT22;6529;50.566;9.774;2023-02-13T20:11:33;3.10;99.90
12926;DHT22;6529;50.566;9.774;2023-02-13T20:13:59;3.00;99.90
12926;DHT22;6529;50.566;9.774;2023-02-13T20:16:30;3.00;99.90
12926;DHT22;6529;50.566;9.774;2023-02-13T20:19:05;2.90;99.90
12926;DHT22;6529;50.566;9.774;2023-02-13T20:21:33;2.90;99.90
12926;DHT22;6529;50.566;9.774;2023-02-13T20:23:59;2.90;99.90
12926;DHT22;6529;50.566;9.774;2023-02-13T20:26:27;3.00;99.90
12926;DHT22;6529;50.566;9.774;2023-02-13T20:28:52;3.00;99.90
12926;DHT22;6529;50.566;9.774;2023-02-13T20:31:21;3.10;99.90
12926;DHT22;6529;50.566;9.774;2023-02-13T20:33:48;3.00;99.90
12926;DHT22;6529;50.566;9.774;2023-02-13T20:36:20;3.00;99.90
12926;DHT22;6529;50.566;9.774;2023-02-13T20:38:47;2.90;99.90
12926;DHT22;6529;50.566;9.774;2023-02-13T20:41:16;2.80;99.90
12926;DHT22;6529;50.566;9.774;2023-02-13T20:43:43;2.80;99.90
12926;DHT22;6529;50.566;9.774;2023-02-13T20:46:09;2.80;99.90
12926;DHT22;6529;50.566;9.774;2023-02-13T20:48:35;2.70;99.90
12926;DHT22;6529;50.566;9.774;2023-02-13T20:51:04;2.80;99.90
12926;DHT22;6529;50.566;9.774;2023-02-13T20:53:31;2.90;99.90
12926;DHT22;6529;50.566;9.774;2023-02-13T20:56:07;2.80;99.90
12926;DHT22;6529;50.566;9.774;2023-02-13T20:58:35;2.80;99.90
12926;DHT22;6529;50.566;9.774;2023-02-13T21:01:01;2.90;99.90
12926;DHT22;6529;50.566;9.774;2023-02-13T21:03:27;2.90;99.90
12926;DHT22;6529;50.566;9.774;2023-02-13T21:05:53;2.60;99.90
12926;DHT22;6529;50.566;9.774;2023-02-13T21:08:19;2.40;99.90
12926;DHT22;6529;50.566;9.774;2023-02-13T21:10:44;2.50;99.90
12926;DHT22;6529;50.566;9.774;2023-02-13T21:13:10;2.40;99.90
12926;DHT22;6529;50.566;9.774;2023-02-13T21:15:37;2.40;99.90
12926;DHT22;6529;50.566;9.774;2023-02-13T21:18:03;2.40;99.90
12926;DHT22;6529;50.566;9.774;2023-02-13T21:20:30;2.40;99.90
12926;DHT22;6529;50.566;9.774;2023-02-13T21:22:56;2.20;99.90
12926;DHT22;6529;50.566;9.774;2023-02-13T21:25:24;2.20;99.90
12926;DHT22;6529;50.566;9.774;2023-02-13T21:27:50;2.20;99.90
12926;DHT22;6529;50.566;9.774;2023-02-13T21:30:15;2.10;99.90
12926;DHT22;6529;50.566;9.774;2023-02-13T21:32:41;2.20;99.90
12926;DHT22;6529;50.566;9.774;2023-02-13T21:35:07;2.30;99.90
12926;DHT22;6529;50.566;9.774;2023-02-13T21:37:32;2.30;99.90
12926;DHT22;6529;50.566;9.774;2023-02-13T21:39:58;2.30;99.90
12926;DHT22;6529;50.566;9.774;2023-02-13T21:42:24;2.20;99.90
12926;DHT22;6529;50.566;9.774;2023-02-13T21:44:49;1.90;99.90
12926;DHT22;6529;50.566;9.774;2023-02-13T21:47:15;1.90;99.90
12926;DHT22;6529;50.566;9.774;2023-02-13T21:49:41;1.90;99.90
12926;DHT22;6529;50.566;9.774;2023-02-13T21:52:06;1.80;99.90
12926;DHT22;6529;50.566;9.774;2023-02-13T21:54:32;1.90;99.90
12926;DHT22;6529;50.566;9.774;2023-02-13T21:56:58;1.80;99.90
12926;DHT22;6529;50.566;9.774;2023-02-13T21:59:24;1.90;99.90
12926;DHT22;6529;50.566;9.774;2023-02-13T22:01:50;2.00;99.90
12926;DHT22;6529;50.566;9.774;2023-02-13T22:04:16;1.80;99.90
12926;DHT22;6529;50.566;9.774;2023-02-13T22:06:42;1.60;99.90
12926;DHT22;6529;50.566;9.774;2023-02-13T22:09:13;1.70;99.90
12926;DHT22;6529;50.566;9.774;2023-02-13T22:11:39;1.70;99.90
12926;DHT22;6529;50.566;9.774;2023-02-13T22:14:06;1.60;99.90